sensor_id;sensor_type;location;lat;lon;timestamp;temperature;humidity
2062;DHT22;11070;51.336;12.340;2023-10-09T00:00:17;11.70;99.90
2062;DHT22;11070;51.336;12.340;2023-10-09T00:03:17;11.70;99.90
2062;DHT22;11070;51.336;12.340;2023-10-09T00:05:43;11.70;99.90
2062;DHT22;11070;51.336;12.340;2023-10-09T00:08:13;11.80;99.90
2062;DHT22;11070;51.336;12.340;2023-10-09T00:10:44;11.80;99.90
2062;DHT22;11070;51.336;12.340;2023-10-09T00:13:19;11.90;99.90
2062;DHT22;11070;51.336;12.340;2023-10-09T00:15:45;11.80;99.90
2062;DHT22;11070;51.336;12.340;2023-10-09T00:18:19;11.80;99.90
2062;DHT22;11070;51.336;12.340;2023-10-09T00:20:54;11.90;99.90
2062;DHT22;11070;51.336;12.340;2023-10-09T00:23:20;11.90;99.90
2062;DHT22;11070;51.336;12.340;2023-10-09T00:25:51;11.90;99.90
2062;DHT22;11070;51.336;12.340;2023-10-09T00:28:38;11.90;99.90
2062;DHT22;11070;51.336;12.340;2023-10-09T00:31:06;11.90;99.90
2062;DHT22;11070;51.336;12.340;2023-10-09T00:33:33;11.90;99.90
2062;DHT22;11070;51.336;12.340;2023-10-09T00:36:06;11.90;99.90
2062;DHT22;11070;51.336;12.340;2023-10-09T00:38:44;12.00;99.90
2062;DHT22;11070;51.336;12.340;2023-10-09T00:41:19;12.00;99.90
2062;DHT22;11070;51.336;12.340;2023-10-09T00:43:51;12.00;99.90
2062;DHT22;11070;51.336;12.340;2023-10-09T00:46:19;12.00;99.90
2062;DHT22;11070;51.336;12.340;2023-10-09T00:48:57;12.00;99.90
2062;DHT22;11070;51.336;12.340;2023-10-09T00:51:27;12.00;99.90
2062;DHT22;11070;51.336;12.340;2023-10-09T00:54:01;12.00;99.90
2062;DHT22;11070;51.336;12.340;2023-10-09T00:56:40;12.10;99.90
2062;DHT22;11070;51.336;12.340;2023-10-09T00:59:10;12.00;99.90
2062;DHT22;11070;51.336;12.340;2023-10-09T01:01:45;12.00;99.90
2062;DHT22;11070;51.336;12.340;2023-10-09T01:04:23;12.10;99.90
2062;DHT22;11070;51.336;12.340;2023-10-09T01:06:50;12.10;99.90
2062;DHT22;11070;51.336;12.340;2023-10-09T01:09:33;12.10;99.90
2062;DHT22;11070;51.336;12.340;2023-10-09T01:12:08;12.10;99.90
2062;DHT22;11070;51.336;12.340;2023-10-09T01:14:43;12.10;99.90
2062;DHT22;11070;51.336;12.340;2023-10-09T01:17:09;12.10;99.90
2062;DHT22;11070;51.336;12.340;2023-10-09T01:19:35;12.10;99.90
2062;DHT22;11070;51.336;12.340;2023-10-09T01:22:01;12.10;99.90
2062;DHT22;11070;51.336;12.340;2023-10-09T01:24:39;12.00;99.90
2062;DHT22;11070;51.336;12.340;2023-10-09T01:27:06;12.00;99.90
2062;DHT22;11070;51.336;12.340;2023-10-09T01:29:38;12.00;99.90
2062;DHT22;11070;51.336;12.340;2023-10-09T01:32:07;12.00;99.90
2062;DHT22;11070;51.336;12.340;2023-10-09T01:34:42;12.00;99.90
2062;DHT22;11070;51.336;12.340;2023-10-09T01:37:17;12.00;99.90
2062;DHT22;11070;51.336;12.340;2023-10-09T01:39:53;12.00;99.90
2062;DHT22;11070;51.336;12.340;2023-10-09T01:42:20;12.00;99.90
2062;DHT22;11070;51.336;12.340;2023-10-09T01:44:55;12.00;99.90
2062;DHT22;11070;51.336;12.340;2023-10-09T01:47:24;12.10;99.90
2062;DHT22;11070;51.336;12.340;2023-10-09T01:49:51;12.00;99.90
2062;DHT22;11070;51.336;12.340;2023-10-09T01:52:19;11.90;99.90
2062;DHT22;11070;51.336;12.340;2023-10-09T01:54:47;11.90;99.90
2062;DHT22;11070;51.336;12.340;2023-10-09T01:57:15;11.80;99.90
2062;DHT22;11070;51.336;12.340;2023-10-09T01:59:43;11.90;99.90
2062;DHT22;11070;51.336;12.340;2023-10-09T02:02:11;11.90;99.90
2062;DHT22;11070;51.336;12.340;2023-10-09T02:04:50;11.90;99.90
2062;DHT22;11070;51.336;12.340;2023-10-09T02:07:16;12.00;99.90
2062;DHT22;11070;51.336;12.340;2023-10-09T02:09:53;12.00;99.90
2062;DHT22;11070;51.336;12.340;2023-10-09T02:12:19;11.90;99.90
2062;DHT22;11070;51.336;12.340;2023-10-09T02:14:47;11.90;99.90
2062;DHT22;11070;51.336;12.340;2023-10-09T02:17:13;11.90;99.90
2062;DHT22;11070;51.336;12.340;2023-10-09T02:19:45;12.00;99.90
2062;DHT22;11070;51.336;12.340;2023-10-09T02:22:15;11.90;99.90
2062;DHT22;11070;51.336;12.340;2023-10-09T02:24:45;11.90;99.90
2062;DHT22;11070;51.336;12.340;2023-10-09T02:27:13;11.90;99.90
2062;DHT22;11070;51.336;12.340;2023-10-09T02:29:46;11.90;99.90
2062;DHT22;11070;51.336;12.340;2023-10-09T02:32:13;11.90;99.90
2062;DHT22;11070;51.336;12.340;2023-10-09T02:34:40;11.90;99.90
2062;DHT22;11070;51.336;12.340;2023-10-09T02:37:06;11.90;99.90
2062;DHT22;11070;51.336;12.340;2023-10-09T02:39:38;11.90;99.90
2062;DHT22;11070;51.336;12.340;2023-10-09T02:42:14;11.80;99.90
2062;DHT22;11070;51.336;12.340;2023-10-09T02:44:39;11.80;99.90
2062;DHT22;11070;51.336;12.340;2023-10-09T02:47:06;11.80;99.90
2062;DHT22;11070;51.336;12.340;2023-10-09T02:49:38;11.80;99.90
2062;DHT22;11070;51.336;12.340;2023-10-09T02:52:05;11.70;99.90
2062;DHT22;11070;51.336;12.340;2023-10-09T02:54:33;11.80;99.90
2062;DHT22;11070;51.336;12.340;2023-10-09T02:57:07;11.80;99.90
2062;DHT22;11070;51.336;12.340;2023-10-09T02:59:34;11.90;99.90
2062;DHT22;11070;51.336;12.340;2023-10-09T03:02:00;11.90;99.90
2062;DHT22;11070;51.336;12.340;2023-10-09T03:04:26;12.00;99.90
2062;DHT22;11070;51.336;12.340;2023-10-09T03:06:59;12.00;99.90
2062;DHT22;11070;51.336;12.340;2023-10-09T03:09:26;12.10;99.90
2062;DHT22;11070;51.336;12.340;2023-10-09T03:11:55;12.20;99.90
2062;DHT22;11070;51.336;12.340;2023-10-09T03:14:31;12.20;99.90
2062;DHT22;11070;51.336;12.340;2023-10-09T03:16:58;12.20;99.90
2062;DHT22;11070;51.336;12.340;2023-10-09T03:19:33;12.20;99.90
2062;DHT22;11070;51.336;12.340;2023-10-09T03:22:04;12.10;99.90
2062;DHT22;11070;51.336;12.340;2023-10-09T03:24:29;12.10;99.90
2062;DHT22;11070;51.336;12.340;2023-10-09T03:26:58;12.10;99.90
2062;DHT22;11070;51.336;12.340;2023-10-09T03:29:24;12.10;99.90
2062;DHT22;11070;51.336;12.340;2023-10-09T03:31:50;12.10;99.90
2062;DHT22;11070;51.336;12.340;2023-10-09T03:34:17;12.10;99.90
2062;DHT22;11070;51.336;12.340;2023-10-09T03:36:47;12.10;99.90
2062;DHT22;11070;51.336;12.340;2023-10-09T03:39:14;12.10;99.90
2062;DHT22;11070;51.336;12.340;2023-10-09T03:41:59;12.00;99.90
2062;DHT22;11070;51.336;12.340;2023-10-09T03:44:25;12.00;99.90
2062;DHT22;11070;51.336;12.340;2023-10-09T03:46:54;12.00;99.90
2062;DHT22;11070;51.336;12.340;2023-10-09T03:49:20;12.10;99.90
2062;DHT22;11070;51.336;12.340;2023-10-09T03:51:49;12.10;99.90
2062;DHT22;11070;51.336;12.340;2023-10-09T03:54:16;12.10;99.90
2062;DHT22;11070;51.336;12.340;2023-10-09T03:56:48;12.10;99.90
2062;DHT22;11070;51.336;12.340;2023-10-09T03:59:21;12.10;99.90
2062;DHT22;11070;51.336;12.340;2023-10-09T04:01:50;12.10;99.90
2062;DHT22;11070;51.336;12.340;2023-10-09T04:04:18;12.20;99.90
2062;DHT22;11070;51.336;12.340;2023-10-09T04:06:48;12.20;99.90
2062;DHT22;11070;51.336;12.340;2023-10-09T04:09:14;12.10;99.90
2062;DHT22;11070;51.336;12.340;2023-10-09T04:11:52;12.10;99.90
2062;DHT22;11070;51.336;12.340;2023-10-09T04:14:40;12.10;99.90
2062;DHT22;11070;51.336;12.340;2023-10-09T04:17:20;12.10;99.90
2062;DHT22;11070;51.336;12.340;2023-10-09T04:19:55;12.10;99.90
2062;DHT22;11070;51.336;12.340;2023-10-09T04:22:40;12.10;99.90
2062;DHT22;11070;51.336;12.340;2023-10-09T04:25:25;12.10;99.90
2062;DHT22;11070;51.336;12.340;2023-10-09T04:27:56;12.10;99.90
2062;DHT22;11070;51.336;12.340;2023-10-09T04:30:40;12.10;99.90
2062;DHT22;11070;51.336;12.340;2023-10-09T04:33:09;12.10;99.90
2062;DHT22;11070;51.336;12.340;2023-10-09T04:36:04;12.10;99.90
2062;DHT22;11070;51.336;12.340;2023-10-09T04:38:49;12.10;99.90
2062;DHT22;11070;51.336;12.340;2023-10-09T04:41:30;12.10;99.90
2062;DHT22;11070;51.336;12.340;2023-10-09T04:44:05;12.10;99.90
2062;DHT22;11070;51.336;12.340;2023-10-09T04:46:50;12.20;99.90
2062;DHT22;11070;51.336;12.340;2023-10-09T04:49:38;12.20;99.90
2062;DHT22;11070;51.336;12.340;2023-10-09T04:52:13;12.10;99.90
2062;DHT22;11070;51.336;12.340;2023-10-09T04:55:06;12.10;99.90
2062;DHT22;11070;51.336;12.340;2023-10-09T04:57:35;12.00;99.90
2062;DHT22;11070;51.336;12.340;2023-10-09T05:00:24;12.00;99.90
2062;DHT22;11070;51.336;12.340;2023-10-09T05:05:26;12.00;99.90
2062;DHT22;11070;51.336;12.340;2023-10-09T05:08:17;12.00;99.90
2062;DHT22;11070;51.336;12.340;2023-10-09T05:10:59;11.90;99.90
2062;DHT22;11070;51.336;12.340;2023-10-09T05:13:30;12.00;99.90
2062;DHT22;11070;51.336;12.340;2023-10-09T05:16:15;12.00;99.90
2062;DHT22;11070;51.336;12.340;2023-10-09T05:18:45;12.00;99.90
2062;DHT22;11070;51.336;12.340;2023-10-09T05:21:24;12.00;99.90
2062;DHT22;11070;51.336;12.340;2023-10-09T05:24:00;12.00;99.90
2062;DHT22;11070;51.336;12.340;2023-10-09T05:26:42;12.00;99.90
2062;DHT22;11070;51.336;12.340;2023-10-09T05:31:59;12.00;99.90
2062;DHT22;11070;51.336;12.340;2023-10-09T05:34:45;12.00;99.90
2062;DHT22;11070;51.336;12.340;2023-10-09T05:37:27;12.10;99.90
2062;DHT22;11070;51.336;12.340;2023-10-09T05:40:09;12.10;99.90
2062;DHT22;11070;51.336;12.340;2023-10-09T05:42:41;12.10;99.90
2062;DHT22;11070;51.336;12.340;2023-10-09T05:45:13;12.20;99.90
2062;DHT22;11070;51.336;12.340;2023-10-09T05:47:42;12.20;99.90
2062;DHT22;11070;51.336;12.340;2023-10-09T05:50:29;12.20;99.90
2062;DHT22;11070;51.336;12.340;2023-10-09T05:52:56;12.30;99.90
2062;DHT22;11070;51.336;12.340;2023-10-09T05:55:25;12.30;99.90
2062;DHT22;11070;51.336;12.340;2023-10-09T05:58:10;12.30;99.90
2062;DHT22;11070;51.336;12.340;2023-10-09T06:00:54;12.40;99.90
2062;DHT22;11070;51.336;12.340;2023-10-09T06:03:38;12.40;99.90
2062;DHT22;11070;51.336;12.340;2023-10-09T06:06:43;12.50;99.90
2062;DHT22;11070;51.336;12.340;2023-10-09T06:09:14;12.50;99.90
2062;DHT22;11070;51.336;12.340;2023-10-09T06:11:47;12.50;99.90
2062;DHT22;11070;51.336;12.340;2023-10-09T06:14:22;12.50;99.90
2062;DHT22;11070;51.336;12.340;2023-10-09T06:17:11;12.50;99.90
2062;DHT22;11070;51.336;12.340;2023-10-09T06:19:37;12.60;99.90
2062;DHT22;11070;51.336;12.340;2023-10-09T06:22:09;12.60;99.90
2062;DHT22;11070;51.336;12.340;2023-10-09T06:24:55;12.70;99.90
2062;DHT22;11070;51.336;12.340;2023-10-09T06:27:23;12.60;99.90
2062;DHT22;11070;51.336;12.340;2023-10-09T06:29:58;12.60;99.90
2062;DHT22;11070;51.336;12.340;2023-10-09T06:32:44;12.60;99.90
2062;DHT22;11070;51.336;12.340;2023-10-09T06:35:17;12.70;99.90
2062;DHT22;11070;51.336;12.340;2023-10-09T06:37:57;12.70;99.90
2062;DHT22;11070;51.336;12.340;2023-10-09T06:40:39;12.70;99.90
2062;DHT22;11070;51.336;12.340;2023-10-09T06:43:24;12.80;99.90
2062;DHT22;11070;51.336;12.340;2023-10-09T06:45:50;12.80;99.90
2062;DHT22;11070;51.336;12.340;2023-10-09T06:48:35;12.80;99.90
2062;DHT22;11070;51.336;12.340;2023-10-09T06:53:51;12.90;99.90
2062;DHT22;11070;51.336;12.340;2023-10-09T06:56:26;12.90;99.90
2062;DHT22;11070;51.336;12.340;2023-10-09T06:59:05;12.90;99.90
2062;DHT22;11070;51.336;12.340;2023-10-09T07:01:51;13.00;99.90
2062;DHT22;11070;51.336;12.340;2023-10-09T07:04:36;13.00;99.90
2062;DHT22;11070;51.336;12.340;2023-10-09T07:07:02;13.10;99.90
2062;DHT22;11070;51.336;12.340;2023-10-09T07:09:33;13.20;99.90
2062;DHT22;11070;51.336;12.340;2023-10-09T07:12:11;13.20;99.90
2062;DHT22;11070;51.336;12.340;2023-10-09T07:14:46;13.30;99.90
2062;DHT22;11070;51.336;12.340;2023-10-09T07:17:14;13.40;99.90
2062;DHT22;11070;51.336;12.340;2023-10-09T07:19:45;13.40;99.90
2062;DHT22;11070;51.336;12.340;2023-10-09T07:22:11;13.50;99.90
2062;DHT22;11070;51.336;12.340;2023-10-09T07:24:50;13.50;99.90
2062;DHT22;11070;51.336;12.340;2023-10-09T07:27:23;13.50;99.90
2062;DHT22;11070;51.336;12.340;2023-10-09T07:30:08;13.50;99.90
2062;DHT22;11070;51.336;12.340;2023-10-09T07:35:50;13.50;99.90
2062;DHT22;11070;51.336;12.340;2023-10-09T07:38:24;13.50;99.90
2062;DHT22;11070;51.336;12.340;2023-10-09T07:40:55;13.50;99.90
2062;DHT22;11070;51.336;12.340;2023-10-09T07:43:43;13.50;99.90
2062;DHT22;11070;51.336;12.340;2023-10-09T07:46:12;13.50;99.90
2062;DHT22;11070;51.336;12.340;2023-10-09T07:49:06;13.50;99.90
2062;DHT22;11070;51.336;12.340;2023-10-09T07:51:36;13.60;99.90
2062;DHT22;11070;51.336;12.340;2023-10-09T07:54:02;13.60;99.90
2062;DHT22;11070;51.336;12.340;2023-10-09T07:56:38;13.70;99.90
2062;DHT22;11070;51.336;12.340;2023-10-09T07:59:07;13.80;99.90
2062;DHT22;11070;51.336;12.340;2023-10-09T08:01:47;13.80;99.90
2062;DHT22;11070;51.336;12.340;2023-10-09T08:04:27;13.90;99.90
2062;DHT22;11070;51.336;12.340;2023-10-09T08:07:10;13.80;99.90
2062;DHT22;11070;51.336;12.340;2023-10-09T08:09:47;13.90;99.90
2062;DHT22;11070;51.336;12.340;2023-10-09T08:12:33;13.90;99.90
2062;DHT22;11070;51.336;12.340;2023-10-09T08:15:23;13.90;99.90
2062;DHT22;11070;51.336;12.340;2023-10-09T08:18:00;14.00;99.90
2062;DHT22;11070;51.336;12.340;2023-10-09T08:20:29;14.00;99.90
2062;DHT22;11070;51.336;12.340;2023-10-09T08:23:17;14.10;99.90
2062;DHT22;11070;51.336;12.340;2023-10-09T08:26:04;14.10;99.90
2062;DHT22;11070;51.336;12.340;2023-10-09T08:28:42;14.10;99.90
2062;DHT22;11070;51.336;12.340;2023-10-09T08:31:12;14.00;99.90
2062;DHT22;11070;51.336;12.340;2023-10-09T08:33:45;14.00;99.90
2062;DHT22;11070;51.336;12.340;2023-10-09T08:36:22;14.00;99.90
2062;DHT22;11070;51.336;12.340;2023-10-09T08:38:48;14.00;99.90
2062;DHT22;11070;51.336;12.340;2023-10-09T08:41:14;14.10;99.90
2062;DHT22;11070;51.336;12.340;2023-10-09T08:43:51;14.10;99.90
2062;DHT22;11070;51.336;12.340;2023-10-09T08:46:19;14.10;99.90
2062;DHT22;11070;51.336;12.340;2023-10-09T08:48:46;14.00;99.90
2062;DHT22;11070;51.336;12.340;2023-10-09T08:51:11;14.10;99.90
2062;DHT22;11070;51.336;12.340;2023-10-09T08:53:39;14.00;99.90
2062;DHT22;11070;51.336;12.340;2023-10-09T08:56:10;14.00;99.90
2062;DHT22;11070;51.336;12.340;2023-10-09T08:58:36;14.00;99.90
2062;DHT22;11070;51.336;12.340;2023-10-09T09:01:06;14.10;99.90
2062;DHT22;11070;51.336;12.340;2023-10-09T09:03:50;14.00;99.90
2062;DHT22;11070;51.336;12.340;2023-10-09T09:06:17;14.00;99.90
2062;DHT22;11070;51.336;12.340;2023-10-09T09:08:45;14.00;99.90
2062;DHT22;11070;51.336;12.340;2023-10-09T09:11:13;14.00;99.90
2062;DHT22;11070;51.336;12.340;2023-10-09T09:16:25;14.00;99.90
2062;DHT22;11070;51.336;12.340;2023-10-09T09:18:59;14.00;99.90
2062;DHT22;11070;51.336;12.340;2023-10-09T09:21:35;14.00;99.90
2062;DHT22;11070;51.336;12.340;2023-10-09T09:24:07;14.10;99.90
2062;DHT22;11070;51.336;12.340;2023-10-09T09:27:09;14.00;99.90
2062;DHT22;11070;51.336;12.340;2023-10-09T09:32:05;14.10;99.90
2062;DHT22;11070;51.336;12.340;2023-10-09T09:34:53;14.10;99.90
2062;DHT22;11070;51.336;12.340;2023-10-09T09:37:31;14.10;99.90
2062;DHT22;11070;51.336;12.340;2023-10-09T09:40:15;14.20;99.90
2062;DHT22;11070;51.336;12.340;2023-10-09T09:42:58;14.30;99.90
2062;DHT22;11070;51.336;12.340;2023-10-09T09:45:42;14.20;99.90
2062;DHT22;11070;51.336;12.340;2023-10-09T09:48:14;14.20;99.90
2062;DHT22;11070;51.336;12.340;2023-10-09T09:50:42;14.20;99.90
2062;DHT22;11070;51.336;12.340;2023-10-09T09:53:15;14.30;99.90
2062;DHT22;11070;51.336;12.340;2023-10-09T09:55:51;14.40;99.90
2062;DHT22;11070;51.336;12.340;2023-10-09T09:58:21;14.50;99.90
2062;DHT22;11070;51.336;12.340;2023-10-09T10:00:50;14.60;99.90
2062;DHT22;11070;51.336;12.340;2023-10-09T10:03:34;14.70;99.90
2062;DHT22;11070;51.336;12.340;2023-10-09T10:06:02;14.80;99.90
2062;DHT22;11070;51.336;12.340;2023-10-09T10:08:35;14.90;99.90
2062;DHT22;11070;51.336;12.340;2023-10-09T10:11:01;14.90;99.90
2062;DHT22;11070;51.336;12.340;2023-10-09T10:16:12;15.10;99.90
2062;DHT22;11070;51.336;12.340;2023-10-09T10:18:58;15.30;99.90
2062;DHT22;11070;51.336;12.340;2023-10-09T10:21:46;15.40;99.90
2062;DHT22;11070;51.336;12.340;2023-10-09T10:27:15;15.30;99.90
2062;DHT22;11070;51.336;12.340;2023-10-09T10:32:53;15.00;99.90
2062;DHT22;11070;51.336;12.340;2023-10-09T10:35:20;14.90;99.90
2062;DHT22;11070;51.336;12.340;2023-10-09T10:37:58;14.80;99.90
2062;DHT22;11070;51.336;12.340;2023-10-09T10:40:37;14.80;99.90
2062;DHT22;11070;51.336;12.340;2023-10-09T10:43:15;14.80;99.90
2062;DHT22;11070;51.336;12.340;2023-10-09T10:46:14;14.90;99.90
2062;DHT22;11070;51.336;12.340;2023-10-09T10:48:43;14.90;99.90
2062;DHT22;11070;51.336;12.340;2023-10-09T10:51:14;14.90;99.90
2062;DHT22;11070;51.336;12.340;2023-10-09T10:53:57;14.90;99.90
2062;DHT22;11070;51.336;12.340;2023-10-09T10:56:24;14.90;99.90
2062;DHT22;11070;51.336;12.340;2023-10-09T10:59:00;15.00;99.90
2062;DHT22;11070;51.336;12.340;2023-10-09T11:01:33;14.90;99.90
2062;DHT22;11070;51.336;12.340;2023-10-09T11:04:19;15.00;99.90
2062;DHT22;11070;51.336;12.340;2023-10-09T11:06:58;15.00;99.90
2062;DHT22;11070;51.336;12.340;2023-10-09T11:09:56;15.00;99.90
2062;DHT22;11070;51.336;12.340;2023-10-09T11:15:11;15.20;99.90
2062;DHT22;11070;51.336;12.340;2023-10-09T11:17:57;15.20;99.90
2062;DHT22;11070;51.336;12.340;2023-10-09T11:20:31;15.30;99.90
2062;DHT22;11070;51.336;12.340;2023-10-09T11:22:58;15.40;99.90
2062;DHT22;11070;51.336;12.340;2023-10-09T11:25:43;15.40;99.90
2062;DHT22;11070;51.336;12.340;2023-10-09T11:28:20;15.50;99.90
2062;DHT22;11070;51.336;12.340;2023-10-09T11:31:09;15.50;99.90
2062;DHT22;11070;51.336;12.340;2023-10-09T11:36:10;15.50;99.90
2062;DHT22;11070;51.336;12.340;2023-10-09T11:38:37;15.50;99.90
2062;DHT22;11070;51.336;12.340;2023-10-09T11:41:16;15.50;99.90
2062;DHT22;11070;51.336;12.340;2023-10-09T11:43:52;15.50;99.90
2062;DHT22;11070;51.336;12.340;2023-10-09T11:46:22;15.50;99.90
2062;DHT22;11070;51.336;12.340;2023-10-09T11:49:14;15.50;99.90
2062;DHT22;11070;51.336;12.340;2023-10-09T11:52:09;15.60;99.90
2062;DHT22;11070;51.336;12.340;2023-10-09T11:54:35;15.60;99.90
2062;DHT22;11070;51.336;12.340;2023-10-09T11:57:02;15.70;99.90
2062;DHT22;11070;51.336;12.340;2023-10-09T11:59:31;15.70;99.90
2062;DHT22;11070;51.336;12.340;2023-10-09T12:02:07;15.70;99.90
2062;DHT22;11070;51.336;12.340;2023-10-09T12:04:37;15.70;99.90
2062;DHT22;11070;51.336;12.340;2023-10-09T12:07:08;15.70;99.90
2062;DHT22;11070;51.336;12.340;2023-10-09T12:09:34;15.70;99.90
2062;DHT22;11070;51.336;12.340;2023-10-09T12:12:07;15.70;99.90
2062;DHT22;11070;51.336;12.340;2023-10-09T12:14:36;15.60;99.90
2062;DHT22;11070;51.336;12.340;2023-10-09T12:17:07;15.60;99.90
2062;DHT22;11070;51.336;12.340;2023-10-09T12:19:37;15.50;99.90
2062;DHT22;11070;51.336;12.340;2023-10-09T12:22:06;15.50;99.90
2062;DHT22;11070;51.336;12.340;2023-10-09T12:24:36;15.60;99.90
2062;DHT22;11070;51.336;12.340;2023-10-09T12:27:03;15.50;99.90
2062;DHT22;11070;51.336;12.340;2023-10-09T12:29:35;15.60;99.90
2062;DHT22;11070;51.336;12.340;2023-10-09T12:32:01;15.60;99.90
2062;DHT22;11070;51.336;12.340;2023-10-09T12:34:28;15.60;99.90
2062;DHT22;11070;51.336;12.340;2023-10-09T12:36:54;15.60;99.90
2062;DHT22;11070;51.336;12.340;2023-10-09T12:39:23;15.60;99.90
2062;DHT22;11070;51.336;12.340;2023-10-09T12:41:49;15.60;99.90
2062;DHT22;11070;51.336;12.340;2023-10-09T12:44:19;15.60;99.90
2062;DHT22;11070;51.336;12.340;2023-10-09T12:46:47;15.60;99.90
2062;DHT22;11070;51.336;12.340;2023-10-09T12:49:22;15.60;99.90
2062;DHT22;11070;51.336;12.340;2023-10-09T12:51:55;15.60;99.90
2062;DHT22;11070;51.336;12.340;2023-10-09T12:54:24;15.60;99.90
2062;DHT22;11070;51.336;12.340;2023-10-09T12:56:52;15.50;99.90
2062;DHT22;11070;51.336;12.340;2023-10-09T12:59:18;15.50;99.90
2062;DHT22;11070;51.336;12.340;2023-10-09T13:01:45;15.50;99.90
2062;DHT22;11070;51.336;12.340;2023-10-09T13:04:15;15.50;99.90
2062;DHT22;11070;51.336;12.340;2023-10-09T13:06:45;15.50;99.90
2062;DHT22;11070;51.336;12.340;2023-10-09T13:09:12;15.40;99.90
2062;DHT22;11070;51.336;12.340;2023-10-09T13:11:39;15.30;99.90
2062;DHT22;11070;51.336;12.340;2023-10-09T13:14:09;15.30;99.90
2062;DHT22;11070;51.336;12.340;2023-10-09T13:16:53;15.30;99.90
2062;DHT22;11070;51.336;12.340;2023-10-09T13:19:19;15.30;99.90
2062;DHT22;11070;51.336;12.340;2023-10-09T13:21:45;15.30;99.90
2062;DHT22;11070;51.336;12.340;2023-10-09T13:24:11;15.30;99.90
2062;DHT22;11070;51.336;12.340;2023-10-09T13:26:44;15.30;99.90
2062;DHT22;11070;51.336;12.340;2023-10-09T13:29:12;15.30;99.90
2062;DHT22;11070;51.336;12.340;2023-10-09T13:31:39;15.30;99.90
2062;DHT22;11070;51.336;12.340;2023-10-09T13:34:05;15.20;99.90
2062;DHT22;11070;51.336;12.340;2023-10-09T13:36:40;15.20;99.90
2062;DHT22;11070;51.336;12.340;2023-10-09T13:39:15;15.20;99.90
2062;DHT22;11070;51.336;12.340;2023-10-09T13:41:54;15.20;99.90
2062;DHT22;11070;51.336;12.340;2023-10-09T13:44:33;15.20;99.90
2062;DHT22;11070;51.336;12.340;2023-10-09T13:47:02;15.30;99.90
2062;DHT22;11070;51.336;12.340;2023-10-09T13:49:30;15.30;99.90
2062;DHT22;11070;51.336;12.340;2023-10-09T13:51:57;15.30;99.90
2062;DHT22;11070;51.336;12.340;2023-10-09T13:54:23;15.20;99.90
2062;DHT22;11070;51.336;12.340;2023-10-09T13:56:58;15.10;99.90
2062;DHT22;11070;51.336;12.340;2023-10-09T13:59:24;15.10;99.90
2062;DHT22;11070;51.336;12.340;2023-10-09T14:01:51;15.20;99.90
2062;DHT22;11070;51.336;12.340;2023-10-09T14:04:20;15.20;99.90
2062;DHT22;11070;51.336;12.340;2023-10-09T14:06:46;15.10;99.90
2062;DHT22;11070;51.336;12.340;2023-10-09T14:09:22;15.10;99.90
2062;DHT22;11070;51.336;12.340;2023-10-09T14:11:57;15.10;99.90
2062;DHT22;11070;51.336;12.340;2023-10-09T14:14:36;15.20;99.90
2062;DHT22;11070;51.336;12.340;2023-10-09T14:17:19;15.20;99.90
2062;DHT22;11070;51.336;12.340;2023-10-09T14:19:49;15.10;99.90
2062;DHT22;11070;51.336;12.340;2023-10-09T14:22:25;15.10;99.90
2062;DHT22;11070;51.336;12.340;2023-10-09T14:24:52;15.20;99.90
2062;DHT22;11070;51.336;12.340;2023-10-09T14:27:23;15.10;99.90
2062;DHT22;11070;51.336;12.340;2023-10-09T14:29:53;15.10;99.90
2062;DHT22;11070;51.336;12.340;2023-10-09T14:32:24;15.10;99.90
2062;DHT22;11070;51.336;12.340;2023-10-09T14:35:09;15.10;99.90
2062;DHT22;11070;51.336;12.340;2023-10-09T14:37:47;15.10;99.90
2062;DHT22;11070;51.336;12.340;2023-10-09T14:40:12;15.10;99.90
2062;DHT22;11070;51.336;12.340;2023-10-09T14:42:41;15.10;99.90
2062;DHT22;11070;51.336;12.340;2023-10-09T14:45:13;15.10;99.90
2062;DHT22;11070;51.336;12.340;2023-10-09T14:47:42;15.10;99.90
2062;DHT22;11070;51.336;12.340;2023-10-09T14:50:08;15.10;99.90
2062;DHT22;11070;51.336;12.340;2023-10-09T14:52:35;15.10;99.90
2062;DHT22;11070;51.336;12.340;2023-10-09T14:55:05;15.10;99.90
2062;DHT22;11070;51.336;12.340;2023-10-09T14:57:31;15.10;99.90
2062;DHT22;11070;51.336;12.340;2023-10-09T15:00:00;15.10;99.90
2062;DHT22;11070;51.336;12.340;2023-10-09T15:02:26;15.10;99.90
2062;DHT22;11070;51.336;12.340;2023-10-09T15:04:52;15.10;99.90
2062;DHT22;11070;51.336;12.340;2023-10-09T15:07:18;15.10;99.90
2062;DHT22;11070;51.336;12.340;2023-10-09T15:09:46;15.10;99.90
2062;DHT22;11070;51.336;12.340;2023-10-09T15:12:12;15.10;99.90
2062;DHT22;11070;51.336;12.340;2023-10-09T15:14:37;15.10;99.90
2062;DHT22;11070;51.336;12.340;2023-10-09T15:17:04;15.20;99.90
2062;DHT22;11070;51.336;12.340;2023-10-09T15:19:32;15.20;99.90
2062;DHT22;11070;51.336;12.340;2023-10-09T15:21:58;15.20;99.90
2062;DHT22;11070;51.336;12.340;2023-10-09T15:24:25;15.20;99.90
2062;DHT22;11070;51.336;12.340;2023-10-09T15:26:52;15.20;99.90
2062;DHT22;11070;51.336;12.340;2023-10-09T15:29:19;15.20;99.90
2062;DHT22;11070;51.336;12.340;2023-10-09T15:31:54;15.20;99.90
2062;DHT22;11070;51.336;12.340;2023-10-09T15:34:20;15.20;99.90
2062;DHT22;11070;51.336;12.340;2023-10-09T15:36:47;15.20;99.90
2062;DHT22;11070;51.336;12.340;2023-10-09T15:39:13;15.20;99.90
2062;DHT22;11070;51.336;12.340;2023-10-09T15:41:39;15.20;99.90
2062;DHT22;11070;51.336;12.340;2023-10-09T15:44:05;15.20;99.90
2062;DHT22;11070;51.336;12.340;2023-10-09T15:46:32;15.20;99.90
2062;DHT22;11070;51.336;12.340;2023-10-09T15:49:01;15.20;99.90
2062;DHT22;11070;51.336;12.340;2023-10-09T15:51:28;15.20;99.90
2062;DHT22;11070;51.336;12.340;2023-10-09T15:53:55;15.20;99.90
2062;DHT22;11070;51.336;12.340;2023-10-09T15:56:22;15.20;99.90
2062;DHT22;11070;51.336;12.340;2023-10-09T15:58:48;15.20;99.90
2062;DHT22;11070;51.336;12.340;2023-10-09T16:01:19;15.20;99.90
2062;DHT22;11070;51.336;12.340;2023-10-09T16:03:46;15.20;99.90
2062;DHT22;11070;51.336;12.340;2023-10-09T16:06:16;15.20;99.90
2062;DHT22;11070;51.336;12.340;2023-10-09T16:08:43;15.20;99.90
2062;DHT22;11070;51.336;12.340;2023-10-09T16:11:20;15.30;99.90
2062;DHT22;11070;51.336;12.340;2023-10-09T16:13:52;15.20;99.90
2062;DHT22;11070;51.336;12.340;2023-10-09T16:18:51;15.20;99.90
2062;DHT22;11070;51.336;12.340;2023-10-09T16:21:17;15.30;99.90
2062;DHT22;11070;51.336;12.340;2023-10-09T16:23:43;15.30;99.90
2062;DHT22;11070;51.336;12.340;2023-10-09T16:26:08;15.20;99.90
2062;DHT22;11070;51.336;12.340;2023-10-09T16:28:35;15.20;99.90
2062;DHT22;11070;51.336;12.340;2023-10-09T16:31:02;15.20;99.90
2062;DHT22;11070;51.336;12.340;2023-10-09T16:33:27;15.20;99.90
2062;DHT22;11070;51.336;12.340;2023-10-09T16:35:54;15.20;99.90
2062;DHT22;11070;51.336;12.340;2023-10-09T16:38:21;15.20;99.90